Terminal Aerodrome Forecast
Issued by NWS

Home | Current Version | Previous Version | Text Only | Print | Product List | Glossary On
Versions: 1 2 3 4 5 6 7 8 9 10 11 12 13 14 15 16 17 18 19 20
583
FTUS43 KBIS 081730
TAFJMS
TAF
KJMS 081730Z 0818/0918 31025G32KT 4SM BLSN SCT008 BKN060
     FM082200 31016G24KT P6SM BKN035
     FM090200 31010KT P6SM BKN050
     FM090600 30009KT P6SM SCT050
     FM091100 30007KT P6SM BKN090=

USA.gov is the U.S. government's official web portal to all federal, state and local government web resources and services.